sensor_id;sensor_type;location;lat;lon;timestamp;temperature;humidity
13328;DHT22;6733;51.044;3.746;2023-02-02T00:00:58;9.40;99.90
13328;DHT22;6733;51.044;3.746;2023-02-02T00:03:24;9.40;99.90
13328;DHT22;6733;51.044;3.746;2023-02-02T00:05:52;9.50;99.90
13328;DHT22;6733;51.044;3.746;2023-02-02T00:08:20;9.50;99.90
13328;DHT22;6733;51.044;3.746;2023-02-02T00:10:46;9.50;99.90
13328;DHT22;6733;51.044;3.746;2023-02-02T00:13:13;9.50;99.90
13328;DHT22;6733;51.044;3.746;2023-02-02T00:15:39;9.50;99.90
13328;DHT22;6733;51.044;3.746;2023-02-02T00:18:06;9.50;99.90
13328;DHT22;6733;51.044;3.746;2023-02-02T00:20:32;9.50;99.90
13328;DHT22;6733;51.044;3.746;2023-02-02T00:23:01;9.50;99.90
13328;DHT22;6733;51.044;3.746;2023-02-02T00:25:29;9.50;99.90
13328;DHT22;6733;51.044;3.746;2023-02-02T00:27:56;9.50;99.90
13328;DHT22;6733;51.044;3.746;2023-02-02T00:30:22;9.40;99.90
13328;DHT22;6733;51.044;3.746;2023-02-02T00:32:48;9.40;99.90
13328;DHT22;6733;51.044;3.746;2023-02-02T00:35:17;9.40;99.90
13328;DHT22;6733;51.044;3.746;2023-02-02T00:37:43;9.40;99.90
13328;DHT22;6733;51.044;3.746;2023-02-02T00:40:10;9.40;99.90
13328;DHT22;6733;51.044;3.746;2023-02-02T00:42:36;9.40;99.90
13328;DHT22;6733;51.044;3.746;2023-02-02T00:45:03;9.40;99.90
13328;DHT22;6733;51.044;3.746;2023-02-02T00:47:47;9.50;99.90
13328;DHT22;6733;51.044;3.746;2023-02-02T00:50:19;9.50;99.90
13328;DHT22;6733;51.044;3.746;2023-02-02T00:52:47;9.50;99.90
13328;DHT22;6733;51.044;3.746;2023-02-02T00:55:14;9.50;99.90
13328;DHT22;6733;51.044;3.746;2023-02-02T00:57:40;9.40;99.90
13328;DHT22;6733;51.044;3.746;2023-02-02T01:00:09;9.40;99.90
13328;DHT22;6733;51.044;3.746;2023-02-02T01:02:37;9.40;99.90
13328;DHT22;6733;51.044;3.746;2023-02-02T01:05:03;9.40;99.90
13328;DHT22;6733;51.044;3.746;2023-02-02T01:07:29;9.50;99.90
13328;DHT22;6733;51.044;3.746;2023-02-02T01:09:55;9.50;99.90
13328;DHT22;6733;51.044;3.746;2023-02-02T01:12:22;9.50;99.90
13328;DHT22;6733;51.044;3.746;2023-02-02T01:14:48;9.50;99.90
13328;DHT22;6733;51.044;3.746;2023-02-02T01:17:15;9.50;99.90
13328;DHT22;6733;51.044;3.746;2023-02-02T01:19:41;9.40;99.90
13328;DHT22;6733;51.044;3.746;2023-02-02T01:22:07;9.50;99.90
13328;DHT22;6733;51.044;3.746;2023-02-02T01:24:34;9.40;99.90
13328;DHT22;6733;51.044;3.746;2023-02-02T01:27:00;9.40;99.90
13328;DHT22;6733;51.044;3.746;2023-02-02T01:29:26;9.40;99.90
13328;DHT22;6733;51.044;3.746;2023-02-02T01:31:52;9.40;99.90
13328;DHT22;6733;51.044;3.746;2023-02-02T01:34:18;9.40;99.90
13328;DHT22;6733;51.044;3.746;2023-02-02T01:36:44;9.40;99.90
13328;DHT22;6733;51.044;3.746;2023-02-02T01:39:10;9.50;99.90
13328;DHT22;6733;51.044;3.746;2023-02-02T01:41:39;9.40;99.90
13328;DHT22;6733;51.044;3.746;2023-02-02T01:47:10;9.50;99.90
13328;DHT22;6733;51.044;3.746;2023-02-02T01:49:36;9.50;99.90
13328;DHT22;6733;51.044;3.746;2023-02-02T01:52:04;9.40;99.90
13328;DHT22;6733;51.044;3.746;2023-02-02T01:54:38;9.40;99.90
13328;DHT22;6733;51.044;3.746;2023-02-02T01:57:13;9.40;99.90
13328;DHT22;6733;51.044;3.746;2023-02-02T01:59:40;9.30;99.90
13328;DHT22;6733;51.044;3.746;2023-02-02T02:02:07;9.30;99.90
13328;DHT22;6733;51.044;3.746;2023-02-02T02:04:33;9.40;99.90
13328;DHT22;6733;51.044;3.746;2023-02-02T02:07:01;9.40;99.90
13328;DHT22;6733;51.044;3.746;2023-02-02T02:09:29;9.40;99.90
13328;DHT22;6733;51.044;3.746;2023-02-02T02:11:55;9.40;99.90
13328;DHT22;6733;51.044;3.746;2023-02-02T02:14:22;9.40;99.90
13328;DHT22;6733;51.044;3.746;2023-02-02T02:31:58;9.50;99.90
13328;DHT22;6733;51.044;3.746;2023-02-02T02:40:26;9.60;99.90
13328;DHT22;6733;51.044;3.746;2023-02-02T02:42:58;9.60;99.90
13328;DHT22;6733;51.044;3.746;2023-02-02T02:45:26;9.50;99.90
13328;DHT22;6733;51.044;3.746;2023-02-02T02:47:54;9.50;99.90
13328;DHT22;6733;51.044;3.746;2023-02-02T02:50:21;9.50;99.90
13328;DHT22;6733;51.044;3.746;2023-02-02T02:52:54;9.40;99.90
13328;DHT22;6733;51.044;3.746;2023-02-02T02:55:23;9.40;99.90
13328;DHT22;6733;51.044;3.746;2023-02-02T02:58:09;9.40;99.90
13328;DHT22;6733;51.044;3.746;2023-02-02T03:01:27;9.30;99.90
13328;DHT22;6733;51.044;3.746;2023-02-02T03:08:36;9.30;99.90
13328;DHT22;6733;51.044;3.746;2023-02-02T03:11:06;9.30;99.90
13328;DHT22;6733;51.044;3.746;2023-02-02T03:13:33;9.30;99.90
13328;DHT22;6733;51.044;3.746;2023-02-02T03:16:00;9.20;99.90
13328;DHT22;6733;51.044;3.746;2023-02-02T03:18:28;9.20;99.90
13328;DHT22;6733;51.044;3.746;2023-02-02T03:20:55;9.20;99.90
13328;DHT22;6733;51.044;3.746;2023-02-02T03:23:21;9.20;99.90
13328;DHT22;6733;51.044;3.746;2023-02-02T03:25:47;9.30;99.90
13328;DHT22;6733;51.044;3.746;2023-02-02T03:28:15;9.30;99.90
13328;DHT22;6733;51.044;3.746;2023-02-02T03:30:42;9.20;99.90
13328;DHT22;6733;51.044;3.746;2023-02-02T03:33:10;9.20;99.90
13328;DHT22;6733;51.044;3.746;2023-02-02T03:35:36;9.20;99.90
13328;DHT22;6733;51.044;3.746;2023-02-02T03:38:02;9.30;99.90
13328;DHT22;6733;51.044;3.746;2023-02-02T03:40:29;9.30;99.90
13328;DHT22;6733;51.044;3.746;2023-02-02T03:42:55;9.30;99.90
13328;DHT22;6733;51.044;3.746;2023-02-02T03:45:21;9.30;99.90
13328;DHT22;6733;51.044;3.746;2023-02-02T03:47:48;9.30;99.90
13328;DHT22;6733;51.044;3.746;2023-02-02T03:50:14;9.20;99.90
13328;DHT22;6733;51.044;3.746;2023-02-02T03:52:40;9.30;99.90
13328;DHT22;6733;51.044;3.746;2023-02-02T03:55:07;9.30;99.90
13328;DHT22;6733;51.044;3.746;2023-02-02T03:57:33;9.30;99.90
13328;DHT22;6733;51.044;3.746;2023-02-02T03:59:59;9.30;99.90
13328;DHT22;6733;51.044;3.746;2023-02-02T04:02:25;9.30;99.90
13328;DHT22;6733;51.044;3.746;2023-02-02T04:04:51;9.30;99.90
13328;DHT22;6733;51.044;3.746;2023-02-02T04:07:17;9.30;99.90
13328;DHT22;6733;51.044;3.746;2023-02-02T04:09:43;9.30;99.90
13328;DHT22;6733;51.044;3.746;2023-02-02T04:12:09;9.40;99.90
13328;DHT22;6733;51.044;3.746;2023-02-02T04:14:35;9.40;99.90
13328;DHT22;6733;51.044;3.746;2023-02-02T04:17:02;9.30;99.90
13328;DHT22;6733;51.044;3.746;2023-02-02T04:19:28;9.30;99.90
13328;DHT22;6733;51.044;3.746;2023-02-02T04:21:54;9.30;99.90
13328;DHT22;6733;51.044;3.746;2023-02-02T04:24:20;9.30;99.90
13328;DHT22;6733;51.044;3.746;2023-02-02T04:26:46;9.30;99.90
13328;DHT22;6733;51.044;3.746;2023-02-02T04:29:12;9.30;99.90
13328;DHT22;6733;51.044;3.746;2023-02-02T04:31:39;9.30;99.90
13328;DHT22;6733;51.044;3.746;2023-02-02T04:34:05;9.20;99.90
13328;DHT22;6733;51.044;3.746;2023-02-02T04:36:31;9.20;99.90
13328;DHT22;6733;51.044;3.746;2023-02-02T04:38:57;9.20;99.90
13328;DHT22;6733;51.044;3.746;2023-02-02T04:41:23;9.20;99.90
13328;DHT22;6733;51.044;3.746;2023-02-02T04:43:49;9.30;99.90
13328;DHT22;6733;51.044;3.746;2023-02-02T04:46:15;9.30;99.90
13328;DHT22;6733;51.044;3.746;2023-02-02T04:48:41;9.30;99.90
13328;DHT22;6733;51.044;3.746;2023-02-02T04:51:10;9.30;99.90
13328;DHT22;6733;51.044;3.746;2023-02-02T04:53:36;9.30;99.90
13328;DHT22;6733;51.044;3.746;2023-02-02T04:56:08;9.30;99.90
13328;DHT22;6733;51.044;3.746;2023-02-02T04:58:35;9.40;99.90
13328;DHT22;6733;51.044;3.746;2023-02-02T05:01:08;9.40;99.90
13328;DHT22;6733;51.044;3.746;2023-02-02T05:03:34;9.40;99.90
13328;DHT22;6733;51.044;3.746;2023-02-02T05:06:01;9.40;99.90
13328;DHT22;6733;51.044;3.746;2023-02-02T05:08:28;9.40;99.90
13328;DHT22;6733;51.044;3.746;2023-02-02T05:10:54;9.30;99.90
13328;DHT22;6733;51.044;3.746;2023-02-02T05:13:20;9.40;99.90
13328;DHT22;6733;51.044;3.746;2023-02-02T05:15:47;9.30;99.90
13328;DHT22;6733;51.044;3.746;2023-02-02T05:18:13;9.40;99.90
13328;DHT22;6733;51.044;3.746;2023-02-02T05:20:39;9.30;99.90
13328;DHT22;6733;51.044;3.746;2023-02-02T05:23:05;9.40;99.90
13328;DHT22;6733;51.044;3.746;2023-02-02T05:25:31;9.40;99.90
13328;DHT22;6733;51.044;3.746;2023-02-02T05:27:57;9.40;99.90
13328;DHT22;6733;51.044;3.746;2023-02-02T05:30:24;9.30;99.90
13328;DHT22;6733;51.044;3.746;2023-02-02T05:32:50;9.30;99.90
13328;DHT22;6733;51.044;3.746;2023-02-02T05:35:16;9.30;99.90
13328;DHT22;6733;51.044;3.746;2023-02-02T05:37:42;9.20;99.90
13328;DHT22;6733;51.044;3.746;2023-02-02T05:40:09;9.30;99.90
13328;DHT22;6733;51.044;3.746;2023-02-02T05:42:35;9.30;99.90
13328;DHT22;6733;51.044;3.746;2023-02-02T05:45:02;9.30;99.90
13328;DHT22;6733;51.044;3.746;2023-02-02T05:47:28;9.30;99.90
13328;DHT22;6733;51.044;3.746;2023-02-02T05:49:54;9.30;99.90
13328;DHT22;6733;51.044;3.746;2023-02-02T05:52:22;9.30;99.90
13328;DHT22;6733;51.044;3.746;2023-02-02T05:54:50;9.30;99.90
13328;DHT22;6733;51.044;3.746;2023-02-02T05:57:16;9.30;99.90
13328;DHT22;6733;51.044;3.746;2023-02-02T05:59:42;9.30;99.90
13328;DHT22;6733;51.044;3.746;2023-02-02T06:02:08;9.30;99.90
13328;DHT22;6733;51.044;3.746;2023-02-02T06:04:34;9.30;99.90
13328;DHT22;6733;51.044;3.746;2023-02-02T06:07:00;9.30;99.90
13328;DHT22;6733;51.044;3.746;2023-02-02T06:09:26;9.20;99.90
13328;DHT22;6733;51.044;3.746;2023-02-02T06:11:52;9.20;99.90
13328;DHT22;6733;51.044;3.746;2023-02-02T06:14:19;9.10;99.90
13328;DHT22;6733;51.044;3.746;2023-02-02T06:16:45;9.10;99.90
13328;DHT22;6733;51.044;3.746;2023-02-02T06:19:11;9.20;99.90
13328;DHT22;6733;51.044;3.746;2023-02-02T06:21:38;9.10;99.90
13328;DHT22;6733;51.044;3.746;2023-02-02T06:24:04;9.20;99.90
13328;DHT22;6733;51.044;3.746;2023-02-02T06:26:30;9.20;99.90
13328;DHT22;6733;51.044;3.746;2023-02-02T06:28:56;9.20;99.90
13328;DHT22;6733;51.044;3.746;2023-02-02T06:31:22;9.20;99.90
13328;DHT22;6733;51.044;3.746;2023-02-02T06:33:53;9.20;99.90
13328;DHT22;6733;51.044;3.746;2023-02-02T06:36:20;9.30;99.90
13328;DHT22;6733;51.044;3.746;2023-02-02T06:38:51;9.30;99.90
13328;DHT22;6733;51.044;3.746;2023-02-02T06:41:18;9.30;99.90
13328;DHT22;6733;51.044;3.746;2023-02-02T06:43:45;9.30;99.90
13328;DHT22;6733;51.044;3.746;2023-02-02T06:46:12;9.20;99.90
13328;DHT22;6733;51.044;3.746;2023-02-02T06:48:39;9.30;99.90
13328;DHT22;6733;51.044;3.746;2023-02-02T06:51:06;9.30;99.90
13328;DHT22;6733;51.044;3.746;2023-02-02T06:53:33;9.30;99.90
13328;DHT22;6733;51.044;3.746;2023-02-02T06:56:02;9.30;99.90
13328;DHT22;6733;51.044;3.746;2023-02-02T06:58:30;9.30;99.90
13328;DHT22;6733;51.044;3.746;2023-02-02T07:01:07;9.40;99.90
13328;DHT22;6733;51.044;3.746;2023-02-02T07:03:34;9.40;99.90
13328;DHT22;6733;51.044;3.746;2023-02-02T07:06:31;9.30;99.90
13328;DHT22;6733;51.044;3.746;2023-02-02T07:08:56;9.40;99.90
13328;DHT22;6733;51.044;3.746;2023-02-02T07:11:22;9.40;99.90
13328;DHT22;6733;51.044;3.746;2023-02-02T07:13:49;9.40;99.90
13328;DHT22;6733;51.044;3.746;2023-02-02T07:16:16;9.40;99.90
13328;DHT22;6733;51.044;3.746;2023-02-02T07:18:43;9.50;99.90
13328;DHT22;6733;51.044;3.746;2023-02-02T07:21:24;9.40;99.90
13328;DHT22;6733;51.044;3.746;2023-02-02T07:23:50;9.40;99.90
13328;DHT22;6733;51.044;3.746;2023-02-02T07:26:18;9.40;99.90
13328;DHT22;6733;51.044;3.746;2023-02-02T07:28:44;9.30;99.90
13328;DHT22;6733;51.044;3.746;2023-02-02T07:31:15;9.30;99.90
13328;DHT22;6733;51.044;3.746;2023-02-02T07:33:43;9.20;99.90
13328;DHT22;6733;51.044;3.746;2023-02-02T07:36:10;9.00;99.90
13328;DHT22;6733;51.044;3.746;2023-02-02T07:38:37;9.00;99.90
13328;DHT22;6733;51.044;3.746;2023-02-02T07:41:04;9.10;99.90
13328;DHT22;6733;51.044;3.746;2023-02-02T07:43:30;9.00;99.90
13328;DHT22;6733;51.044;3.746;2023-02-02T07:46:01;9.00;99.90
13328;DHT22;6733;51.044;3.746;2023-02-02T07:48:29;9.10;99.90
13328;DHT22;6733;51.044;3.746;2023-02-02T07:51:03;9.10;99.90
13328;DHT22;6733;51.044;3.746;2023-02-02T07:53:29;9.10;99.90
13328;DHT22;6733;51.044;3.746;2023-02-02T07:56:06;9.10;99.90
13328;DHT22;6733;51.044;3.746;2023-02-02T07:58:32;9.20;99.90
13328;DHT22;6733;51.044;3.746;2023-02-02T08:01:03;9.10;99.90
13328;DHT22;6733;51.044;3.746;2023-02-02T08:03:30;9.10;99.90
13328;DHT22;6733;51.044;3.746;2023-02-02T08:05:57;8.80;99.90
13328;DHT22;6733;51.044;3.746;2023-02-02T08:08:24;8.70;99.90
13328;DHT22;6733;51.044;3.746;2023-02-02T08:10:51;8.60;99.90
13328;DHT22;6733;51.044;3.746;2023-02-02T08:13:18;8.60;99.90
13328;DHT22;6733;51.044;3.746;2023-02-02T08:15:45;8.50;99.90
13328;DHT22;6733;51.044;3.746;2023-02-02T08:18:11;8.50;99.90
13328;DHT22;6733;51.044;3.746;2023-02-02T08:20:38;8.40;99.90
13328;DHT22;6733;51.044;3.746;2023-02-02T08:23:04;8.40;99.90
13328;DHT22;6733;51.044;3.746;2023-02-02T08:25:30;8.30;99.90
13328;DHT22;6733;51.044;3.746;2023-02-02T08:27:56;8.30;99.90
13328;DHT22;6733;51.044;3.746;2023-02-02T08:30:26;8.20;99.90
13328;DHT22;6733;51.044;3.746;2023-02-02T08:32:52;8.20;99.90
13328;DHT22;6733;51.044;3.746;2023-02-02T08:35:18;8.20;99.90
13328;DHT22;6733;51.044;3.746;2023-02-02T08:37:48;8.20;99.90
13328;DHT22;6733;51.044;3.746;2023-02-02T08:40:14;8.10;99.90
13328;DHT22;6733;51.044;3.746;2023-02-02T08:42:40;8.10;99.90
13328;DHT22;6733;51.044;3.746;2023-02-02T08:45:08;8.10;99.90
13328;DHT22;6733;51.044;3.746;2023-02-02T08:47:34;8.10;99.90
13328;DHT22;6733;51.044;3.746;2023-02-02T08:50:00;8.20;99.90
13328;DHT22;6733;51.044;3.746;2023-02-02T08:52:26;8.20;99.90
13328;DHT22;6733;51.044;3.746;2023-02-02T08:54:52;8.20;99.90
13328;DHT22;6733;51.044;3.746;2023-02-02T08:57:19;8.20;99.90
13328;DHT22;6733;51.044;3.746;2023-02-02T08:59:45;8.20;99.90
13328;DHT22;6733;51.044;3.746;2023-02-02T09:02:11;8.30;99.90
13328;DHT22;6733;51.044;3.746;2023-02-02T09:04:38;8.30;99.90
13328;DHT22;6733;51.044;3.746;2023-02-02T09:07:05;8.30;99.90
13328;DHT22;6733;51.044;3.746;2023-02-02T09:09:31;8.30;99.90
13328;DHT22;6733;51.044;3.746;2023-02-02T09:11:57;8.40;99.90
13328;DHT22;6733;51.044;3.746;2023-02-02T09:14:23;8.40;99.90
13328;DHT22;6733;51.044;3.746;2023-02-02T09:16:50;8.40;99.90
13328;DHT22;6733;51.044;3.746;2023-02-02T09:19:19;8.50;99.90
13328;DHT22;6733;51.044;3.746;2023-02-02T09:21:45;8.50;99.90
13328;DHT22;6733;51.044;3.746;2023-02-02T09:24:12;8.60;99.90
13328;DHT22;6733;51.044;3.746;2023-02-02T09:26:39;8.60;99.90
13328;DHT22;6733;51.044;3.746;2023-02-02T09:29:07;8.70;99.90
13328;DHT22;6733;51.044;3.746;2023-02-02T09:31:35;8.70;99.90
13328;DHT22;6733;51.044;3.746;2023-02-02T09:34:06;8.70;99.90
13328;DHT22;6733;51.044;3.746;2023-02-02T09:36:32;8.60;99.90
13328;DHT22;6733;51.044;3.746;2023-02-02T09:38:59;8.60;99.90
13328;DHT22;6733;51.044;3.746;2023-02-02T09:47:21;8.50;99.90
13328;DHT22;6733;51.044;3.746;2023-02-02T09:50:02;8.50;99.90
13328;DHT22;6733;51.044;3.746;2023-02-02T09:52:36;8.60;99.90
13328;DHT22;6733;51.044;3.746;2023-02-02T09:55:20;8.70;99.90
13328;DHT22;6733;51.044;3.746;2023-02-02T09:58:24;8.70;99.90
13328;DHT22;6733;51.044;3.746;2023-02-02T10:08:51;9.10;99.90
13328;DHT22;6733;51.044;3.746;2023-02-02T10:13:45;9.20;99.90
13328;DHT22;6733;51.044;3.746;2023-02-02T10:16:15;9.30;99.90
13328;DHT22;6733;51.044;3.746;2023-02-02T10:24:03;9.60;99.90
13328;DHT22;6733;51.044;3.746;2023-02-02T10:26:37;9.80;99.90
13328;DHT22;6733;51.044;3.746;2023-02-02T10:45:01;10.00;99.90
13328;DHT22;6733;51.044;3.746;2023-02-02T10:47:31;10.00;99.90
13328;DHT22;6733;51.044;3.746;2023-02-02T10:52:48;10.20;99.90
13328;DHT22;6733;51.044;3.746;2023-02-02T10:55:36;10.30;99.90
13328;DHT22;6733;51.044;3.746;2023-02-02T11:00:51;10.30;99.90
13328;DHT22;6733;51.044;3.746;2023-02-02T11:03:22;10.40;99.90
13328;DHT22;6733;51.044;3.746;2023-02-02T11:05:48;10.50;99.90
13328;DHT22;6733;51.044;3.746;2023-02-02T11:08:44;10.60;99.90
13328;DHT22;6733;51.044;3.746;2023-02-02T11:11:22;10.60;99.90
13328;DHT22;6733;51.044;3.746;2023-02-02T11:13:54;10.80;99.90
13328;DHT22;6733;51.044;3.746;2023-02-02T11:16:26;10.70;99.90
13328;DHT22;6733;51.044;3.746;2023-02-02T11:18:52;10.80;99.90
13328;DHT22;6733;51.044;3.746;2023-02-02T11:21:23;10.90;99.90
13328;DHT22;6733;51.044;3.746;2023-02-02T11:23:52;10.60;99.90
13328;DHT22;6733;51.044;3.746;2023-02-02T11:26:18;10.60;99.90
13328;DHT22;6733;51.044;3.746;2023-02-02T11:28:47;10.40;99.90
13328;DHT22;6733;51.044;3.746;2023-02-02T11:31:32;10.40;99.90
13328;DHT22;6733;51.044;3.746;2023-02-02T11:34:28;10.30;99.90
13328;DHT22;6733;51.044;3.746;2023-02-02T11:37:00;10.50;99.90
13328;DHT22;6733;51.044;3.746;2023-02-02T11:39:26;10.80;99.90
13328;DHT22;6733;51.044;3.746;2023-02-02T11:42:03;11.00;99.90
13328;DHT22;6733;51.044;3.746;2023-02-02T11:44:32;11.10;99.90
13328;DHT22;6733;51.044;3.746;2023-02-02T11:47:02;11.20;99.90
13328;DHT22;6733;51.044;3.746;2023-02-02T11:49:36;11.10;99.90
13328;DHT22;6733;51.044;3.746;2023-02-02T11:52:05;10.90;99.90
13328;DHT22;6733;51.044;3.746;2023-02-02T11:54:40;10.90;99.90
13328;DHT22;6733;51.044;3.746;2023-02-02T11:57:16;10.80;99.90
13328;DHT22;6733;51.044;3.746;2023-02-02T11:59:44;11.10;99.90
13328;DHT22;6733;51.044;3.746;2023-02-02T12:02:21;11.00;99.90
13328;DHT22;6733;51.044;3.746;2023-02-02T12:04:50;10.90;99.90
13328;DHT22;6733;51.044;3.746;2023-02-02T12:07:28;10.90;99.90
13328;DHT22;6733;51.044;3.746;2023-02-02T12:10:12;10.80;99.90
13328;DHT22;6733;51.044;3.746;2023-02-02T12:13:16;10.80;99.90
13328;DHT22;6733;51.044;3.746;2023-02-02T12:18:49;10.80;99.90
13328;DHT22;6733;51.044;3.746;2023-02-02T12:21:40;10.80;99.90
13328;DHT22;6733;51.044;3.746;2023-02-02T12:24:33;10.80;99.90
13328;DHT22;6733;51.044;3.746;2023-02-02T12:30:08;10.90;99.90
13328;DHT22;6733;51.044;3.746;2023-02-02T12:32:50;11.10;99.90
13328;DHT22;6733;51.044;3.746;2023-02-02T12:41:09;11.40;99.90
13328;DHT22;6733;51.044;3.746;2023-02-02T12:43:44;11.40;99.90
13328;DHT22;6733;51.044;3.746;2023-02-02T12:46:44;11.40;99.90
13328;DHT22;6733;51.044;3.746;2023-02-02T12:55:22;11.10;99.90
13328;DHT22;6733;51.044;3.746;2023-02-02T12:58:01;11.20;99.90
13328;DHT22;6733;51.044;3.746;2023-02-02T13:00:39;11.20;99.90
13328;DHT22;6733;51.044;3.746;2023-02-02T13:03:37;11.20;99.90
13328;DHT22;6733;51.044;3.746;2023-02-02T13:08:44;11.40;99.90
13328;DHT22;6733;51.044;3.746;2023-02-02T13:11:18;11.40;99.90
13328;DHT22;6733;51.044;3.746;2023-02-02T13:14:11;11.40;99.90
13328;DHT22;6733;51.044;3.746;2023-02-02T13:16:40;11.40;99.90
13328;DHT22;6733;51.044;3.746;2023-02-02T13:19:14;11.60;99.90
13328;DHT22;6733;51.044;3.746;2023-02-02T13:21:45;11.40;99.90
13328;DHT22;6733;51.044;3.746;2023-02-02T13:24:16;11.40;99.90
13328;DHT22;6733;51.044;3.746;2023-02-02T13:26:46;11.10;99.90
13328;DHT22;6733;51.044;3.746;2023-02-02T13:32:01;11.00;99.90
13328;DHT22;6733;51.044;3.746;2023-02-02T13:37:17;11.00;99.90
13328;DHT22;6733;51.044;3.746;2023-02-02T13:40:03;10.90;99.90
13328;DHT22;6733;51.044;3.746;2023-02-02T13:48:45;10.80;99.90
13328;DHT22;6733;51.044;3.746;2023-02-02T14:02:50;10.80;99.90
13328;DHT22;6733;51.044;3.746;2023-02-02T14:05:32;10.70;99.90
13328;DHT22;6733;51.044;3.746;2023-02-02T14:08:18;10.80;99.90
13328;DHT22;6733;51.044;3.746;2023-02-02T14:13:23;10.90;99.90
13328;DHT22;6733;51.044;3.746;2023-02-02T14:24:03;10.60;99.90
13328;DHT22;6733;51.044;3.746;2023-02-02T14:26:59;10.60;99.90
13328;DHT22;6733;51.044;3.746;2023-02-02T14:34:42;10.90;99.90
13328;DHT22;6733;51.044;3.746;2023-02-02T14:42:40;10.80;99.90
13328;DHT22;6733;51.044;3.746;2023-02-02T14:45:35;10.90;99.90
13328;DHT22;6733;51.044;3.746;2023-02-02T14:48:14;11.00;99.90
13328;DHT22;6733;51.044;3.746;2023-02-02T14:50:47;12.30;99.90
13328;DHT22;6733;51.044;3.746;2023-02-02T14:56:07;11.20;99.90
13328;DHT22;6733;51.044;3.746;2023-02-02T15:06:35;11.00;99.90
13328;DHT22;6733;51.044;3.746;2023-02-02T15:25:47;10.90;99.90
13328;DHT22;6733;51.044;3.746;2023-02-02T15:28:37;10.80;99.90
13328;DHT22;6733;51.044;3.746;2023-02-02T15:34:00;10.70;99.90
13328;DHT22;6733;51.044;3.746;2023-02-02T15:36:33;10.60;99.90
13328;DHT22;6733;51.044;3.746;2023-02-02T15:39:07;10.60;99.90
13328;DHT22;6733;51.044;3.746;2023-02-02T15:41:42;10.60;99.90
13328;DHT22;6733;51.044;3.746;2023-02-02T15:44:24;10.60;99.90
13328;DHT22;6733;51.044;3.746;2023-02-02T15:46:52;10.60;99.90
13328;DHT22;6733;51.044;3.746;2023-02-02T15:49:28;10.60;99.90
13328;DHT22;6733;51.044;3.746;2023-02-02T15:51:58;10.60;99.90
13328;DHT22;6733;51.044;3.746;2023-02-02T15:54:29;10.60;99.90
13328;DHT22;6733;51.044;3.746;2023-02-02T15:56:57;10.60;99.90
13328;DHT22;6733;51.044;3.746;2023-02-02T15:59:37;10.60;99.90
13328;DHT22;6733;51.044;3.746;2023-02-02T16:02:18;10.60;99.90
13328;DHT22;6733;51.044;3.746;2023-02-02T16:04:46;10.50;99.90
13328;DHT22;6733;51.044;3.746;2023-02-02T16:07:26;10.40;99.90
13328;DHT22;6733;51.044;3.746;2023-02-02T16:09:52;10.40;99.90
13328;DHT22;6733;51.044;3.746;2023-02-02T16:12:20;10.40;99.90
13328;DHT22;6733;51.044;3.746;2023-02-02T16:14:52;10.40;99.90
13328;DHT22;6733;51.044;3.746;2023-02-02T16:17:27;10.30;99.90
13328;DHT22;6733;51.044;3.746;2023-02-02T16:20:02;10.30;99.90
13328;DHT22;6733;51.044;3.746;2023-02-02T16:22:35;10.20;99.90
13328;DHT22;6733;51.044;3.746;2023-02-02T16:25:06;10.20;99.90
13328;DHT22;6733;51.044;3.746;2023-02-02T16:27:34;10.20;99.90
13328;DHT22;6733;51.044;3.746;2023-02-02T16:30:05;10.10;99.90
13328;DHT22;6733;51.044;3.746;2023-02-02T16:32:34;10.10;99.90
13328;DHT22;6733;51.044;3.746;2023-02-02T16:35:05;10.10;99.90
13328;DHT22;6733;51.044;3.746;2023-02-02T16:37:33;10.00;99.90
13328;DHT22;6733;51.044;3.746;2023-02-02T16:40:24;10.00;99.90
13328;DHT22;6733;51.044;3.746;2023-02-02T16:45:50;10.00;99.90
13328;DHT22;6733;51.044;3.746;2023-02-02T16:48:28;10.10;99.90
13328;DHT22;6733;51.044;3.746;2023-02-02T16:53:57;10.10;99.90
13328;DHT22;6733;51.044;3.746;2023-02-02T16:56:36;10.00;99.90
13328;DHT22;6733;51.044;3.746;2023-02-02T16:59:24;10.10;99.90
13328;DHT22;6733;51.044;3.746;2023-02-02T17:01:55;10.10;99.90
13328;DHT22;6733;51.044;3.746;2023-02-02T17:04:28;10.10;99.90
13328;DHT22;6733;51.044;3.746;2023-02-02T17:07:12;10.00;99.90
13328;DHT22;6733;51.044;3.746;2023-02-02T17:09:44;10.00;99.90
13328;DHT22;6733;51.044;3.746;2023-02-02T17:17:22;9.90;99.90
13328;DHT22;6733;51.044;3.746;2023-02-02T17:19:48;9.90;99.90
13328;DHT22;6733;51.044;3.746;2023-02-02T17:22:17;9.90;99.90
13328;DHT22;6733;51.044;3.746;2023-02-02T17:24:47;9.80;99.90
13328;DHT22;6733;51.044;3.746;2023-02-02T17:27:20;9.80;99.90
13328;DHT22;6733;51.044;3.746;2023-02-02T17:29:49;9.80;99.90
13328;DHT22;6733;51.044;3.746;2023-02-02T17:32:15;9.80;99.90
13328;DHT22;6733;51.044;3.746;2023-02-02T17:34:41;9.80;99.90
13328;DHT22;6733;51.044;3.746;2023-02-02T17:37:07;9.70;99.90
13328;DHT22;6733;51.044;3.746;2023-02-02T17:39:33;9.70;99.90
13328;DHT22;6733;51.044;3.746;2023-02-02T17:41:59;9.70;99.90
13328;DHT22;6733;51.044;3.746;2023-02-02T17:44:26;9.70;99.90
13328;DHT22;6733;51.044;3.746;2023-02-02T17:46:52;9.70;99.90
13328;DHT22;6733;51.044;3.746;2023-02-02T17:49:18;9.70;99.90
13328;DHT22;6733;51.044;3.746;2023-02-02T17:51:45;9.70;99.90
13328;DHT22;6733;51.044;3.746;2023-02-02T17:54:12;9.70;99.90
13328;DHT22;6733;51.044;3.746;2023-02-02T17:56:40;9.70;99.90
13328;DHT22;6733;51.044;3.746;2023-02-02T17:59:07;9.80;99.90
13328;DHT22;6733;51.044;3.746;2023-02-02T18:01:35;9.80;99.90
13328;DHT22;6733;51.044;3.746;2023-02-02T18:04:03;9.80;99.90
13328;DHT22;6733;51.044;3.746;2023-02-02T18:06:29;9.90;99.90
13328;DHT22;6733;51.044;3.746;2023-02-02T18:08:55;9.80;99.90
13328;DHT22;6733;51.044;3.746;2023-02-02T18:11:22;9.90;99.90
13328;DHT22;6733;51.044;3.746;2023-02-02T18:13:48;9.90;99.90
13328;DHT22;6733;51.044;3.746;2023-02-02T18:16:14;10.00;99.90
13328;DHT22;6733;51.044;3.746;2023-02-02T18:18:40;10.00;99.90
13328;DHT22;6733;51.044;3.746;2023-02-02T18:21:08;10.00;99.90
13328;DHT22;6733;51.044;3.746;2023-02-02T18:23:35;10.00;99.90
13328;DHT22;6733;51.044;3.746;2023-02-02T18:26:19;10.00;99.90
13328;DHT22;6733;51.044;3.746;2023-02-02T18:28:48;10.00;99.90
13328;DHT22;6733;51.044;3.746;2023-02-02T18:31:16;10.00;99.90
13328;DHT22;6733;51.044;3.746;2023-02-02T18:33:45;10.00;99.90
13328;DHT22;6733;51.044;3.746;2023-02-02T18:36:13;10.00;99.90
13328;DHT22;6733;51.044;3.746;2023-02-02T18:38:41;10.00;99.90
13328;DHT22;6733;51.044;3.746;2023-02-02T18:41:11;10.00;99.90
13328;DHT22;6733;51.044;3.746;2023-02-02T18:43:37;10.00;99.90
13328;DHT22;6733;51.044;3.746;2023-02-02T18:46:05;10.10;99.90
13328;DHT22;6733;51.044;3.746;2023-02-02T18:48:34;10.00;99.90
13328;DHT22;6733;51.044;3.746;2023-02-02T18:51:05;10.10;99.90
13328;DHT22;6733;51.044;3.746;2023-02-02T18:53:32;10.10;99.90
13328;DHT22;6733;51.044;3.746;2023-02-02T18:56:02;10.10;99.90
13328;DHT22;6733;51.044;3.746;2023-02-02T18:58:28;10.20;99.90
13328;DHT22;6733;51.044;3.746;2023-02-02T19:00:54;10.20;99.90
13328;DHT22;6733;51.044;3.746;2023-02-02T19:03:20;10.20;99.90
13328;DHT22;6733;51.044;3.746;2023-02-02T19:05:46;10.30;99.90
13328;DHT22;6733;51.044;3.746;2023-02-02T19:08:31;10.30;99.90
13328;DHT22;6733;51.044;3.746;2023-02-02T19:11:00;10.20;99.90
13328;DHT22;6733;51.044;3.746;2023-02-02T19:13:32;10.30;99.90